sensor_id;sensor_type;location;lat;lon;timestamp;P1;durP1;ratioP1;P2;durP2;ratioP2
18693;SDS011;9477;51.414;10.362;2022-09-09T00:00:12;2.83;;;1.23;;
18693;SDS011;9477;51.414;10.362;2022-09-09T00:02:18;1.80;;;1.00;;
18693;SDS011;9477;51.414;10.362;2022-09-09T00:04:26;2.07;;;1.00;;
18693;SDS011;9477;51.414;10.362;2022-09-09T00:06:31;2.13;;;1.00;;
18693;SDS011;9477;51.414;10.362;2022-09-09T00:08:40;2.33;;;1.00;;
18693;SDS011;9477;51.414;10.362;2022-09-09T00:10:48;4.17;;;1.30;;
18693;SDS011;9477;51.414;10.362;2022-09-09T00:12:57;1.73;;;1.03;;
18693;SDS011;9477;51.414;10.362;2022-09-09T00:15:11;4.37;;;1.23;;
18693;SDS011;9477;51.414;10.362;2022-09-09T00:17:18;2.70;;;1.20;;
18693;SDS011;9477;51.414;10.362;2022-09-09T00:19:36;2.40;;;1.20;;
18693;SDS011;9477;51.414;10.362;2022-09-09T00:21:46;2.73;;;1.33;;
18693;SDS011;9477;51.414;10.362;2022-09-09T00:23:54;2.53;;;1.20;;
18693;SDS011;9477;51.414;10.362;2022-09-09T00:25:59;3.33;;;1.10;;
18693;SDS011;9477;51.414;10.362;2022-09-09T00:28:10;3.97;;;1.40;;
18693;SDS011;9477;51.414;10.362;2022-09-09T00:30:20;3.37;;;1.47;;
18693;SDS011;9477;51.414;10.362;2022-09-09T00:32:27;3.47;;;1.30;;
18693;SDS011;9477;51.414;10.362;2022-09-09T00:34:33;2.63;;;1.20;;
18693;SDS011;9477;51.414;10.362;2022-09-09T00:36:38;2.13;;;1.20;;
18693;SDS011;9477;51.414;10.362;2022-09-09T00:38:43;2.10;;;1.10;;
18693;SDS011;9477;51.414;10.362;2022-09-09T00:40:51;3.97;;;1.70;;
18693;SDS011;9477;51.414;10.362;2022-09-09T00:43:02;3.43;;;1.20;;
18693;SDS011;9477;51.414;10.362;2022-09-09T00:45:32;2.53;;;1.13;;
18693;SDS011;9477;51.414;10.362;2022-09-09T00:47:51;2.37;;;1.30;;
18693;SDS011;9477;51.414;10.362;2022-09-09T00:49:59;3.13;;;1.20;;
18693;SDS011;9477;51.414;10.362;2022-09-09T00:52:08;2.93;;;1.27;;
18693;SDS011;9477;51.414;10.362;2022-09-09T00:54:31;5.20;;;1.47;;
18693;SDS011;9477;51.414;10.362;2022-09-09T00:56:43;2.93;;;1.27;;
18693;SDS011;9477;51.414;10.362;2022-09-09T00:58:53;3.93;;;1.30;;
18693;SDS011;9477;51.414;10.362;2022-09-09T01:01:06;4.17;;;1.27;;
18693;SDS011;9477;51.414;10.362;2022-09-09T01:03:17;3.00;;;1.40;;
18693;SDS011;9477;51.414;10.362;2022-09-09T01:05:29;4.83;;;1.60;;
18693;SDS011;9477;51.414;10.362;2022-09-09T01:07:37;2.87;;;1.30;;
18693;SDS011;9477;51.414;10.362;2022-09-09T01:09:45;5.13;;;1.40;;
18693;SDS011;9477;51.414;10.362;2022-09-09T01:11:55;3.83;;;1.33;;
18693;SDS011;9477;51.414;10.362;2022-09-09T01:14:10;5.37;;;1.60;;
18693;SDS011;9477;51.414;10.362;2022-09-09T01:16:19;4.73;;;1.30;;
18693;SDS011;9477;51.414;10.362;2022-09-09T01:18:23;2.67;;;1.20;;
18693;SDS011;9477;51.414;10.362;2022-09-09T01:20:35;2.93;;;1.13;;
18693;SDS011;9477;51.414;10.362;2022-09-09T01:22:49;3.97;;;1.40;;
18693;SDS011;9477;51.414;10.362;2022-09-09T01:25:18;4.67;;;1.20;;
18693;SDS011;9477;51.414;10.362;2022-09-09T01:27:30;3.50;;;1.10;;
18693;SDS011;9477;51.414;10.362;2022-09-09T01:29:35;3.90;;;1.10;;
18693;SDS011;9477;51.414;10.362;2022-09-09T01:31:39;3.20;;;1.30;;
18693;SDS011;9477;51.414;10.362;2022-09-09T01:33:43;3.80;;;1.40;;
18693;SDS011;9477;51.414;10.362;2022-09-09T01:35:46;3.47;;;1.50;;
18693;SDS011;9477;51.414;10.362;2022-09-09T01:37:55;2.70;;;1.23;;
18693;SDS011;9477;51.414;10.362;2022-09-09T01:39:58;3.00;;;1.23;;
18693;SDS011;9477;51.414;10.362;2022-09-09T01:42:01;5.43;;;1.30;;
18693;SDS011;9477;51.414;10.362;2022-09-09T01:44:07;4.80;;;1.10;;
18693;SDS011;9477;51.414;10.362;2022-09-09T01:46:10;5.33;;;1.40;;
18693;SDS011;9477;51.414;10.362;2022-09-09T01:48:15;4.40;;;1.33;;
18693;SDS011;9477;51.414;10.362;2022-09-09T01:50:20;4.57;;;1.30;;
18693;SDS011;9477;51.414;10.362;2022-09-09T01:55:46;2.43;;;1.00;;
18693;SDS011;9477;51.414;10.362;2022-09-09T01:57:56;3.53;;;1.53;;
18693;SDS011;9477;51.414;10.362;2022-09-09T02:00:12;3.30;;;1.30;;
18693;SDS011;9477;51.414;10.362;2022-09-09T02:02:18;4.30;;;1.40;;
18693;SDS011;9477;51.414;10.362;2022-09-09T02:04:29;4.30;;;1.30;;
18693;SDS011;9477;51.414;10.362;2022-09-09T02:06:39;6.77;;;1.47;;
18693;SDS011;9477;51.414;10.362;2022-09-09T02:08:44;3.03;;;1.50;;
18693;SDS011;9477;51.414;10.362;2022-09-09T02:10:53;5.90;;;1.37;;
18693;SDS011;9477;51.414;10.362;2022-09-09T02:13:01;2.53;;;1.23;;
18693;SDS011;9477;51.414;10.362;2022-09-09T02:15:08;2.97;;;1.40;;
18693;SDS011;9477;51.414;10.362;2022-09-09T02:17:21;3.37;;;1.50;;
18693;SDS011;9477;51.414;10.362;2022-09-09T02:19:29;2.40;;;1.50;;
18693;SDS011;9477;51.414;10.362;2022-09-09T02:21:34;5.50;;;1.70;;
18693;SDS011;9477;51.414;10.362;2022-09-09T02:23:38;2.87;;;1.30;;
18693;SDS011;9477;51.414;10.362;2022-09-09T02:25:43;5.53;;;1.53;;
18693;SDS011;9477;51.414;10.362;2022-09-09T02:27:47;3.30;;;1.57;;
18693;SDS011;9477;51.414;10.362;2022-09-09T02:29:53;3.90;;;1.40;;
18693;SDS011;9477;51.414;10.362;2022-09-09T02:32:00;1.73;;;1.40;;
18693;SDS011;9477;51.414;10.362;2022-09-09T02:34:06;3.93;;;1.40;;
18693;SDS011;9477;51.414;10.362;2022-09-09T02:36:13;4.07;;;1.60;;
18693;SDS011;9477;51.414;10.362;2022-09-09T02:38:18;4.40;;;1.50;;
18693;SDS011;9477;51.414;10.362;2022-09-09T02:40:23;2.80;;;1.40;;
18693;SDS011;9477;51.414;10.362;2022-09-09T02:42:26;4.23;;;1.77;;
18693;SDS011;9477;51.414;10.362;2022-09-09T02:44:29;3.83;;;1.60;;
18693;SDS011;9477;51.414;10.362;2022-09-09T02:46:36;2.87;;;1.50;;
18693;SDS011;9477;51.414;10.362;2022-09-09T02:48:52;5.13;;;1.60;;
18693;SDS011;9477;51.414;10.362;2022-09-09T02:51:02;5.07;;;1.70;;
18693;SDS011;9477;51.414;10.362;2022-09-09T02:53:12;5.03;;;1.57;;
18693;SDS011;9477;51.414;10.362;2022-09-09T02:55:22;4.83;;;1.70;;
18693;SDS011;9477;51.414;10.362;2022-09-09T02:57:30;5.67;;;1.63;;
18693;SDS011;9477;51.414;10.362;2022-09-09T02:59:36;5.07;;;1.50;;
18693;SDS011;9477;51.414;10.362;2022-09-09T03:01:39;5.53;;;1.50;;
18693;SDS011;9477;51.414;10.362;2022-09-09T03:03:44;4.27;;;1.63;;
18693;SDS011;9477;51.414;10.362;2022-09-09T03:05:49;4.87;;;1.50;;
18693;SDS011;9477;51.414;10.362;2022-09-09T03:07:52;5.87;;;1.40;;
18693;SDS011;9477;51.414;10.362;2022-09-09T03:09:59;4.27;;;1.47;;
18693;SDS011;9477;51.414;10.362;2022-09-09T03:12:03;3.33;;;1.30;;
18693;SDS011;9477;51.414;10.362;2022-09-09T03:14:07;5.87;;;1.60;;
18693;SDS011;9477;51.414;10.362;2022-09-09T03:16:12;5.07;;;1.63;;
18693;SDS011;9477;51.414;10.362;2022-09-09T03:18:16;3.80;;;1.50;;
18693;SDS011;9477;51.414;10.362;2022-09-09T03:20:19;5.57;;;1.67;;
18693;SDS011;9477;51.414;10.362;2022-09-09T03:22:24;7.87;;;1.60;;
18693;SDS011;9477;51.414;10.362;2022-09-09T03:24:28;4.53;;;1.50;;
18693;SDS011;9477;51.414;10.362;2022-09-09T03:26:31;4.20;;;1.60;;
18693;SDS011;9477;51.414;10.362;2022-09-09T03:28:34;4.27;;;1.40;;
18693;SDS011;9477;51.414;10.362;2022-09-09T03:30:37;6.47;;;1.60;;
18693;SDS011;9477;51.414;10.362;2022-09-09T03:32:40;4.20;;;1.80;;
18693;SDS011;9477;51.414;10.362;2022-09-09T03:34:49;5.27;;;1.60;;
18693;SDS011;9477;51.414;10.362;2022-09-09T03:36:51;3.13;;;1.40;;
18693;SDS011;9477;51.414;10.362;2022-09-09T03:38:56;3.80;;;1.40;;
18693;SDS011;9477;51.414;10.362;2022-09-09T03:41:00;5.93;;;1.50;;
18693;SDS011;9477;51.414;10.362;2022-09-09T03:43:03;3.03;;;1.47;;
18693;SDS011;9477;51.414;10.362;2022-09-09T03:45:09;7.17;;;1.80;;
18693;SDS011;9477;51.414;10.362;2022-09-09T03:47:14;2.70;;;1.30;;
18693;SDS011;9477;51.414;10.362;2022-09-09T03:49:22;5.00;;;1.50;;
18693;SDS011;9477;51.414;10.362;2022-09-09T03:51:27;5.40;;;1.80;;
18693;SDS011;9477;51.414;10.362;2022-09-09T03:53:31;7.33;;;1.97;;
18693;SDS011;9477;51.414;10.362;2022-09-09T03:55:36;3.97;;;1.40;;
18693;SDS011;9477;51.414;10.362;2022-09-09T03:57:39;3.00;;;1.27;;
18693;SDS011;9477;51.414;10.362;2022-09-09T03:59:42;4.27;;;1.53;;
18693;SDS011;9477;51.414;10.362;2022-09-09T04:01:45;2.97;;;1.40;;
18693;SDS011;9477;51.414;10.362;2022-09-09T04:03:48;3.90;;;1.50;;
18693;SDS011;9477;51.414;10.362;2022-09-09T04:05:51;4.40;;;1.43;;
18693;SDS011;9477;51.414;10.362;2022-09-09T04:07:54;10.50;;;6.27;;
18693;SDS011;9477;51.414;10.362;2022-09-09T04:09:57;10.17;;;4.97;;
18693;SDS011;9477;51.414;10.362;2022-09-09T04:12:01;5.67;;;3.13;;
18693;SDS011;9477;51.414;10.362;2022-09-09T04:14:04;4.73;;;2.10;;
18693;SDS011;9477;51.414;10.362;2022-09-09T04:16:08;6.60;;;3.80;;
18693;SDS011;9477;51.414;10.362;2022-09-09T04:18:14;8.17;;;3.70;;
18693;SDS011;9477;51.414;10.362;2022-09-09T04:20:20;8.27;;;2.60;;
18693;SDS011;9477;51.414;10.362;2022-09-09T04:22:23;2.57;;;1.50;;
18693;SDS011;9477;51.414;10.362;2022-09-09T04:24:28;2.07;;;1.50;;
18693;SDS011;9477;51.414;10.362;2022-09-09T04:26:31;5.37;;;1.60;;
18693;SDS011;9477;51.414;10.362;2022-09-09T04:28:36;2.97;;;1.43;;
18693;SDS011;9477;51.414;10.362;2022-09-09T04:30:39;4.13;;;1.40;;
18693;SDS011;9477;51.414;10.362;2022-09-09T04:32:42;5.37;;;1.60;;
18693;SDS011;9477;51.414;10.362;2022-09-09T04:34:45;3.97;;;1.60;;
18693;SDS011;9477;51.414;10.362;2022-09-09T04:36:48;2.03;;;1.13;;
18693;SDS011;9477;51.414;10.362;2022-09-09T04:38:53;4.10;;;1.50;;
18693;SDS011;9477;51.414;10.362;2022-09-09T04:40:55;3.20;;;1.20;;
18693;SDS011;9477;51.414;10.362;2022-09-09T04:42:58;4.80;;;1.17;;
18693;SDS011;9477;51.414;10.362;2022-09-09T04:45:03;4.03;;;1.30;;
18693;SDS011;9477;51.414;10.362;2022-09-09T04:47:07;3.57;;;1.30;;
18693;SDS011;9477;51.414;10.362;2022-09-09T04:49:10;4.90;;;1.37;;
18693;SDS011;9477;51.414;10.362;2022-09-09T04:51:15;5.20;;;1.40;;
18693;SDS011;9477;51.414;10.362;2022-09-09T04:53:18;3.97;;;1.70;;
18693;SDS011;9477;51.414;10.362;2022-09-09T04:55:21;3.00;;;1.40;;
18693;SDS011;9477;51.414;10.362;2022-09-09T04:57:23;5.53;;;1.53;;
18693;SDS011;9477;51.414;10.362;2022-09-09T04:59:26;3.93;;;1.57;;
18693;SDS011;9477;51.414;10.362;2022-09-09T05:01:30;3.70;;;1.50;;
18693;SDS011;9477;51.414;10.362;2022-09-09T05:03:33;3.63;;;1.50;;
18693;SDS011;9477;51.414;10.362;2022-09-09T05:05:36;3.27;;;1.50;;
18693;SDS011;9477;51.414;10.362;2022-09-09T05:07:39;5.43;;;1.80;;
18693;SDS011;9477;51.414;10.362;2022-09-09T05:09:42;7.23;;;2.10;;
18693;SDS011;9477;51.414;10.362;2022-09-09T05:11:46;4.50;;;1.43;;
18693;SDS011;9477;51.414;10.362;2022-09-09T05:13:50;6.37;;;1.57;;
18693;SDS011;9477;51.414;10.362;2022-09-09T05:15:54;3.40;;;1.30;;
18693;SDS011;9477;51.414;10.362;2022-09-09T05:17:59;7.83;;;1.90;;
18693;SDS011;9477;51.414;10.362;2022-09-09T05:20:03;3.83;;;1.57;;
18693;SDS011;9477;51.414;10.362;2022-09-09T05:22:11;4.33;;;1.97;;
18693;SDS011;9477;51.414;10.362;2022-09-09T05:24:14;3.93;;;1.70;;
18693;SDS011;9477;51.414;10.362;2022-09-09T05:26:19;6.03;;;1.60;;
18693;SDS011;9477;51.414;10.362;2022-09-09T05:28:23;3.87;;;1.80;;
18693;SDS011;9477;51.414;10.362;2022-09-09T05:30:26;3.03;;;1.70;;
18693;SDS011;9477;51.414;10.362;2022-09-09T05:32:29;7.17;;;2.37;;
18693;SDS011;9477;51.414;10.362;2022-09-09T05:34:36;11.77;;;2.63;;
18693;SDS011;9477;51.414;10.362;2022-09-09T05:36:40;4.27;;;2.00;;
18693;SDS011;9477;51.414;10.362;2022-09-09T05:38:46;4.23;;;2.30;;
18693;SDS011;9477;51.414;10.362;2022-09-09T05:40:50;6.80;;;1.93;;
18693;SDS011;9477;51.414;10.362;2022-09-09T05:42:59;6.97;;;2.00;;
18693;SDS011;9477;51.414;10.362;2022-09-09T05:45:03;5.63;;;1.90;;
18693;SDS011;9477;51.414;10.362;2022-09-09T05:47:06;4.90;;;1.70;;
18693;SDS011;9477;51.414;10.362;2022-09-09T05:49:10;4.93;;;1.80;;
18693;SDS011;9477;51.414;10.362;2022-09-09T05:51:18;5.10;;;1.60;;
18693;SDS011;9477;51.414;10.362;2022-09-09T05:53:23;5.00;;;1.63;;
18693;SDS011;9477;51.414;10.362;2022-09-09T05:55:26;6.70;;;2.33;;
18693;SDS011;9477;51.414;10.362;2022-09-09T05:57:29;6.53;;;3.53;;
18693;SDS011;9477;51.414;10.362;2022-09-09T05:59:31;5.67;;;2.33;;
18693;SDS011;9477;51.414;10.362;2022-09-09T06:01:35;4.07;;;2.00;;
18693;SDS011;9477;51.414;10.362;2022-09-09T06:03:42;4.83;;;1.80;;
18693;SDS011;9477;51.414;10.362;2022-09-09T06:05:46;6.90;;;2.23;;
18693;SDS011;9477;51.414;10.362;2022-09-09T06:07:53;4.93;;;1.90;;
18693;SDS011;9477;51.414;10.362;2022-09-09T06:09:56;4.13;;;1.60;;
18693;SDS011;9477;51.414;10.362;2022-09-09T06:12:00;5.57;;;2.07;;
18693;SDS011;9477;51.414;10.362;2022-09-09T06:14:03;7.40;;;2.00;;
18693;SDS011;9477;51.414;10.362;2022-09-09T06:16:07;5.83;;;1.90;;
18693;SDS011;9477;51.414;10.362;2022-09-09T06:18:12;9.43;;;1.80;;
18693;SDS011;9477;51.414;10.362;2022-09-09T06:20:15;5.80;;;1.57;;
18693;SDS011;9477;51.414;10.362;2022-09-09T06:22:20;5.77;;;1.83;;
18693;SDS011;9477;51.414;10.362;2022-09-09T06:24:25;10.80;;;1.80;;
18693;SDS011;9477;51.414;10.362;2022-09-09T06:26:28;8.90;;;1.73;;
18693;SDS011;9477;51.414;10.362;2022-09-09T06:28:32;5.60;;;1.50;;
18693;SDS011;9477;51.414;10.362;2022-09-09T06:30:36;7.23;;;1.53;;
18693;SDS011;9477;51.414;10.362;2022-09-09T06:32:39;5.90;;;1.30;;
18693;SDS011;9477;51.414;10.362;2022-09-09T06:34:42;6.60;;;1.60;;
18693;SDS011;9477;51.414;10.362;2022-09-09T06:36:46;2.90;;;1.40;;
18693;SDS011;9477;51.414;10.362;2022-09-09T06:38:49;4.83;;;1.30;;
18693;SDS011;9477;51.414;10.362;2022-09-09T06:40:54;2.93;;;1.30;;
18693;SDS011;9477;51.414;10.362;2022-09-09T06:42:59;3.80;;;1.47;;
18693;SDS011;9477;51.414;10.362;2022-09-09T06:45:03;3.23;;;1.50;;
18693;SDS011;9477;51.414;10.362;2022-09-09T06:47:06;3.37;;;1.23;;
18693;SDS011;9477;51.414;10.362;2022-09-09T06:49:09;8.53;;;1.70;;
18693;SDS011;9477;51.414;10.362;2022-09-09T06:51:13;4.07;;;1.17;;
18693;SDS011;9477;51.414;10.362;2022-09-09T06:53:19;6.87;;;1.40;;
18693;SDS011;9477;51.414;10.362;2022-09-09T06:55:23;3.97;;;1.57;;
18693;SDS011;9477;51.414;10.362;2022-09-09T06:57:27;3.47;;;1.50;;
18693;SDS011;9477;51.414;10.362;2022-09-09T06:59:38;4.60;;;1.40;;
18693;SDS011;9477;51.414;10.362;2022-09-09T07:01:43;4.87;;;1.47;;
18693;SDS011;9477;51.414;10.362;2022-09-09T07:03:52;3.90;;;1.60;;
18693;SDS011;9477;51.414;10.362;2022-09-09T07:05:55;3.80;;;1.40;;
18693;SDS011;9477;51.414;10.362;2022-09-09T07:07:59;3.83;;;1.40;;
18693;SDS011;9477;51.414;10.362;2022-09-09T07:10:02;4.17;;;1.30;;
18693;SDS011;9477;51.414;10.362;2022-09-09T07:12:05;4.97;;;1.60;;
18693;SDS011;9477;51.414;10.362;2022-09-09T07:14:10;5.50;;;1.23;;
18693;SDS011;9477;51.414;10.362;2022-09-09T07:16:15;4.20;;;1.30;;
18693;SDS011;9477;51.414;10.362;2022-09-09T07:18:19;4.27;;;1.23;;
18693;SDS011;9477;51.414;10.362;2022-09-09T07:20:22;3.93;;;1.50;;
18693;SDS011;9477;51.414;10.362;2022-09-09T07:22:25;3.10;;;1.40;;
18693;SDS011;9477;51.414;10.362;2022-09-09T07:24:29;5.03;;;1.40;;
18693;SDS011;9477;51.414;10.362;2022-09-09T07:26:33;4.37;;;1.20;;
18693;SDS011;9477;51.414;10.362;2022-09-09T07:28:36;3.30;;;1.27;;
18693;SDS011;9477;51.414;10.362;2022-09-09T07:30:41;4.03;;;1.30;;
18693;SDS011;9477;51.414;10.362;2022-09-09T07:32:44;5.40;;;1.33;;
18693;SDS011;9477;51.414;10.362;2022-09-09T07:34:47;4.23;;;1.40;;
18693;SDS011;9477;51.414;10.362;2022-09-09T07:36:51;4.53;;;1.50;;
18693;SDS011;9477;51.414;10.362;2022-09-09T07:38:54;6.20;;;1.37;;
18693;SDS011;9477;51.414;10.362;2022-09-09T07:41:02;2.70;;;1.40;;
18693;SDS011;9477;51.414;10.362;2022-09-09T07:43:06;4.73;;;1.40;;
18693;SDS011;9477;51.414;10.362;2022-09-09T07:45:09;7.67;;;1.50;;
18693;SDS011;9477;51.414;10.362;2022-09-09T07:47:14;3.53;;;1.20;;
18693;SDS011;9477;51.414;10.362;2022-09-09T07:49:17;5.00;;;1.60;;
18693;SDS011;9477;51.414;10.362;2022-09-09T07:51:29;4.20;;;1.53;;
18693;SDS011;9477;51.414;10.362;2022-09-09T07:53:33;2.63;;;1.47;;
18693;SDS011;9477;51.414;10.362;2022-09-09T07:55:37;4.80;;;1.60;;
18693;SDS011;9477;51.414;10.362;2022-09-09T07:57:40;6.77;;;1.80;;
18693;SDS011;9477;51.414;10.362;2022-09-09T07:59:43;5.90;;;1.50;;
18693;SDS011;9477;51.414;10.362;2022-09-09T08:01:47;5.13;;;1.70;;
18693;SDS011;9477;51.414;10.362;2022-09-09T08:03:58;7.13;;;1.53;;
18693;SDS011;9477;51.414;10.362;2022-09-09T08:06:03;4.10;;;1.40;;
18693;SDS011;9477;51.414;10.362;2022-09-09T08:08:08;2.67;;;1.30;;
18693;SDS011;9477;51.414;10.362;2022-09-09T08:10:10;4.00;;;1.47;;
18693;SDS011;9477;51.414;10.362;2022-09-09T08:12:15;3.70;;;1.20;;
18693;SDS011;9477;51.414;10.362;2022-09-09T08:14:19;4.77;;;1.60;;
18693;SDS011;9477;51.414;10.362;2022-09-09T08:16:23;6.37;;;1.70;;
18693;SDS011;9477;51.414;10.362;2022-09-09T08:18:27;7.83;;;1.60;;
18693;SDS011;9477;51.414;10.362;2022-09-09T08:20:31;4.53;;;1.60;;
18693;SDS011;9477;51.414;10.362;2022-09-09T08:22:34;7.93;;;1.50;;
18693;SDS011;9477;51.414;10.362;2022-09-09T08:24:38;7.90;;;1.57;;
18693;SDS011;9477;51.414;10.362;2022-09-09T08:26:42;4.20;;;1.30;;
18693;SDS011;9477;51.414;10.362;2022-09-09T08:28:46;5.83;;;1.57;;
18693;SDS011;9477;51.414;10.362;2022-09-09T08:30:50;4.13;;;1.30;;
18693;SDS011;9477;51.414;10.362;2022-09-09T08:32:54;7.90;;;1.60;;
18693;SDS011;9477;51.414;10.362;2022-09-09T08:34:57;7.30;;;1.60;;
18693;SDS011;9477;51.414;10.362;2022-09-09T08:37:09;7.00;;;1.50;;
18693;SDS011;9477;51.414;10.362;2022-09-09T08:39:13;4.17;;;1.33;;
18693;SDS011;9477;51.414;10.362;2022-09-09T08:41:28;3.87;;;1.37;;
18693;SDS011;9477;51.414;10.362;2022-09-09T08:43:45;4.50;;;1.27;;
18693;SDS011;9477;51.414;10.362;2022-09-09T08:45:54;4.60;;;1.33;;
18693;SDS011;9477;51.414;10.362;2022-09-09T08:48:04;3.63;;;1.43;;
18693;SDS011;9477;51.414;10.362;2022-09-09T08:50:20;5.27;;;1.53;;
18693;SDS011;9477;51.414;10.362;2022-09-09T08:52:29;3.73;;;1.30;;
18693;SDS011;9477;51.414;10.362;2022-09-09T08:54:33;7.73;;;1.70;;
18693;SDS011;9477;51.414;10.362;2022-09-09T08:56:52;4.97;;;1.30;;
18693;SDS011;9477;51.414;10.362;2022-09-09T08:58:55;2.13;;;1.20;;
18693;SDS011;9477;51.414;10.362;2022-09-09T09:01:12;2.93;;;1.43;;
18693;SDS011;9477;51.414;10.362;2022-09-09T09:03:26;6.67;;;1.60;;
18693;SDS011;9477;51.414;10.362;2022-09-09T09:05:37;6.20;;;1.40;;
18693;SDS011;9477;51.414;10.362;2022-09-09T09:07:52;5.47;;;1.37;;
18693;SDS011;9477;51.414;10.362;2022-09-09T09:10:02;2.87;;;1.37;;
18693;SDS011;9477;51.414;10.362;2022-09-09T09:12:32;4.13;;;1.30;;
18693;SDS011;9477;51.414;10.362;2022-09-09T09:14:40;5.30;;;1.30;;
18693;SDS011;9477;51.414;10.362;2022-09-09T09:16:48;4.30;;;1.50;;
18693;SDS011;9477;51.414;10.362;2022-09-09T09:18:54;3.23;;;1.30;;
18693;SDS011;9477;51.414;10.362;2022-09-09T09:21:02;4.07;;;1.30;;
18693;SDS011;9477;51.414;10.362;2022-09-09T09:23:15;4.13;;;1.20;;
18693;SDS011;9477;51.414;10.362;2022-09-09T09:25:23;5.63;;;1.57;;
18693;SDS011;9477;51.414;10.362;2022-09-09T09:27:34;5.90;;;1.57;;
18693;SDS011;9477;51.414;10.362;2022-09-09T09:29:38;5.50;;;1.50;;
18693;SDS011;9477;51.414;10.362;2022-09-09T09:32:02;5.03;;;1.30;;
18693;SDS011;9477;51.414;10.362;2022-09-09T09:34:07;5.40;;;1.60;;
18693;SDS011;9477;51.414;10.362;2022-09-09T09:36:12;6.73;;;1.20;;
18693;SDS011;9477;51.414;10.362;2022-09-09T09:38:18;3.90;;;1.30;;
18693;SDS011;9477;51.414;10.362;2022-09-09T09:40:48;7.87;;;1.40;;
18693;SDS011;9477;51.414;10.362;2022-09-09T09:42:53;7.43;;;1.37;;
18693;SDS011;9477;51.414;10.362;2022-09-09T09:44:59;5.83;;;1.27;;
18693;SDS011;9477;51.414;10.362;2022-09-09T09:47:11;5.23;;;1.40;;
18693;SDS011;9477;51.414;10.362;2022-09-09T09:49:15;6.23;;;1.57;;
18693;SDS011;9477;51.414;10.362;2022-09-09T09:51:18;3.40;;;1.20;;
18693;SDS011;9477;51.414;10.362;2022-09-09T09:53:26;4.87;;;1.50;;
18693;SDS011;9477;51.414;10.362;2022-09-09T09:55:30;5.80;;;1.70;;
18693;SDS011;9477;51.414;10.362;2022-09-09T09:57:36;3.37;;;1.20;;
18693;SDS011;9477;51.414;10.362;2022-09-09T09:59:39;4.33;;;1.33;;
18693;SDS011;9477;51.414;10.362;2022-09-09T10:01:42;4.47;;;1.30;;
18693;SDS011;9477;51.414;10.362;2022-09-09T10:03:50;2.97;;;1.00;;
18693;SDS011;9477;51.414;10.362;2022-09-09T10:05:53;4.03;;;1.20;;
18693;SDS011;9477;51.414;10.362;2022-09-09T10:08:04;6.43;;;1.67;;
18693;SDS011;9477;51.414;10.362;2022-09-09T10:10:13;3.97;;;1.40;;
18693;SDS011;9477;51.414;10.362;2022-09-09T10:12:24;6.33;;;1.57;;
18693;SDS011;9477;51.414;10.362;2022-09-09T10:14:38;5.87;;;1.20;;
18693;SDS011;9477;51.414;10.362;2022-09-09T10:16:56;5.43;;;1.30;;
18693;SDS011;9477;51.414;10.362;2022-09-09T10:19:16;4.07;;;1.20;;
18693;SDS011;9477;51.414;10.362;2022-09-09T10:21:32;7.70;;;1.50;;
18693;SDS011;9477;51.414;10.362;2022-09-09T10:23:49;5.70;;;1.53;;
18693;SDS011;9477;51.414;10.362;2022-09-09T10:26:10;6.07;;;1.40;;
18693;SDS011;9477;51.414;10.362;2022-09-09T10:28:27;4.60;;;1.40;;
18693;SDS011;9477;51.414;10.362;2022-09-09T10:30:42;7.30;;;1.50;;
18693;SDS011;9477;51.414;10.362;2022-09-09T10:32:53;4.93;;;1.10;;
18693;SDS011;9477;51.414;10.362;2022-09-09T10:35:10;5.70;;;1.37;;
18693;SDS011;9477;51.414;10.362;2022-09-09T10:37:18;4.57;;;1.10;;
18693;SDS011;9477;51.414;10.362;2022-09-09T10:39:33;3.70;;;1.10;;
18693;SDS011;9477;51.414;10.362;2022-09-09T10:41:47;5.20;;;1.47;;
18693;SDS011;9477;51.414;10.362;2022-09-09T10:46:33;2.17;;;1.00;;
18693;SDS011;9477;51.414;10.362;2022-09-09T10:48:47;3.13;;;1.00;;
18693;SDS011;9477;51.414;10.362;2022-09-09T10:51:04;4.83;;;1.47;;
18693;SDS011;9477;51.414;10.362;2022-09-09T10:53:20;4.57;;;1.20;;
18693;SDS011;9477;51.414;10.362;2022-09-09T10:55:33;8.77;;;1.40;;
18693;SDS011;9477;51.414;10.362;2022-09-09T10:57:43;6.13;;;1.40;;
18693;SDS011;9477;51.414;10.362;2022-09-09T10:59:50;6.03;;;1.50;;
18693;SDS011;9477;51.414;10.362;2022-09-09T11:01:58;5.33;;;1.30;;
18693;SDS011;9477;51.414;10.362;2022-09-09T11:04:09;4.60;;;1.40;;
18693;SDS011;9477;51.414;10.362;2022-09-09T11:06:19;3.23;;;1.30;;
18693;SDS011;9477;51.414;10.362;2022-09-09T11:08:26;3.00;;;1.43;;
18693;SDS011;9477;51.414;10.362;2022-09-09T11:10:33;3.83;;;1.33;;
18693;SDS011;9477;51.414;10.362;2022-09-09T11:12:44;3.42;;;1.27;;
18693;SDS011;9477;51.414;10.362;2022-09-09T11:14:49;3.05;;;1.25;;
18693;SDS011;9477;51.414;10.362;2022-09-09T11:16:59;5.50;;;1.10;;
18693;SDS011;9477;51.414;10.362;2022-09-09T11:19:09;3.10;;;1.20;;
18693;SDS011;9477;51.414;10.362;2022-09-09T11:21:17;4.73;;;1.67;;
18693;SDS011;9477;51.414;10.362;2022-09-09T11:23:24;3.70;;;1.30;;
18693;SDS011;9477;51.414;10.362;2022-09-09T11:25:34;3.42;;;1.13;;
18693;SDS011;9477;51.414;10.362;2022-09-09T11:27:41;2.97;;;1.10;;
18693;SDS011;9477;51.414;10.362;2022-09-09T11:30:00;5.27;;;1.30;;
18693;SDS011;9477;51.414;10.362;2022-09-09T11:32:12;2.20;;;0.90;;
18693;SDS011;9477;51.414;10.362;2022-09-09T11:34:34;4.85;;;1.30;;
18693;SDS011;9477;51.414;10.362;2022-09-09T11:36:54;3.75;;;1.25;;
18693;SDS011;9477;51.414;10.362;2022-09-09T11:39:13;2.90;;;1.00;;
18693;SDS011;9477;51.414;10.362;2022-09-09T11:41:34;3.80;;;1.20;;
18693;SDS011;9477;51.414;10.362;2022-09-09T11:43:40;11.07;;;1.30;;
18693;SDS011;9477;51.414;10.362;2022-09-09T11:45:50;7.15;;;1.30;;
18693;SDS011;9477;51.414;10.362;2022-09-09T11:48:01;3.17;;;1.13;;
18693;SDS011;9477;51.414;10.362;2022-09-09T11:50:08;5.82;;;1.40;;
18693;SDS011;9477;51.414;10.362;2022-09-09T11:52:19;4.30;;;1.10;;
18693;SDS011;9477;51.414;10.362;2022-09-09T11:54:28;3.58;;;1.20;;
18693;SDS011;9477;51.414;10.362;2022-09-09T11:56:33;1.90;;;1.05;;
18693;SDS011;9477;51.414;10.362;2022-09-09T11:58:53;2.58;;;1.00;;
18693;SDS011;9477;51.414;10.362;2022-09-09T12:00:58;4.20;;;1.15;;
18693;SDS011;9477;51.414;10.362;2022-09-09T12:03:01;3.67;;;1.15;;
18693;SDS011;9477;51.414;10.362;2022-09-09T12:05:05;2.88;;;1.20;;
18693;SDS011;9477;51.414;10.362;2022-09-09T12:07:21;3.55;;;1.30;;
18693;SDS011;9477;51.414;10.362;2022-09-09T12:09:44;3.67;;;1.17;;
18693;SDS011;9477;51.414;10.362;2022-09-09T12:11:51;4.65;;;1.10;;
18693;SDS011;9477;51.414;10.362;2022-09-09T12:13:56;4.55;;;1.00;;
18693;SDS011;9477;51.414;10.362;2022-09-09T12:16:02;2.83;;;1.10;;
18693;SDS011;9477;51.414;10.362;2022-09-09T12:18:06;5.57;;;1.30;;
18693;SDS011;9477;51.414;10.362;2022-09-09T12:20:18;5.72;;;1.10;;
18693;SDS011;9477;51.414;10.362;2022-09-09T12:22:25;3.90;;;1.05;;
18693;SDS011;9477;51.414;10.362;2022-09-09T12:24:35;4.40;;;1.23;;
18693;SDS011;9477;51.414;10.362;2022-09-09T12:26:47;3.70;;;1.05;;
18693;SDS011;9477;51.414;10.362;2022-09-09T12:29:03;2.75;;;0.88;;
18693;SDS011;9477;51.414;10.362;2022-09-09T12:31:14;2.70;;;1.02;;
18693;SDS011;9477;51.414;10.362;2022-09-09T12:33:24;2.15;;;1.02;;
18693;SDS011;9477;51.414;10.362;2022-09-09T12:35:37;3.47;;;1.00;;
18693;SDS011;9477;51.414;10.362;2022-09-09T12:37:44;3.28;;;1.10;;
18693;SDS011;9477;51.414;10.362;2022-09-09T12:39:55;4.82;;;1.00;;
18693;SDS011;9477;51.414;10.362;2022-09-09T12:41:59;3.15;;;1.20;;
18693;SDS011;9477;51.414;10.362;2022-09-09T12:44:08;4.43;;;1.30;;
18693;SDS011;9477;51.414;10.362;2022-09-09T12:46:14;2.53;;;0.90;;
18693;SDS011;9477;51.414;10.362;2022-09-09T12:48:26;2.95;;;1.13;;
18693;SDS011;9477;51.414;10.362;2022-09-09T12:50:37;3.65;;;0.98;;
18693;SDS011;9477;51.414;10.362;2022-09-09T12:52:46;5.22;;;1.23;;